Terminal Aerodrome Forecast
Issued by NWS Greer, SC

Home | Current Version | Previous Version | Text Only | Print | Product List | Glossary On
Versions: 1 2 3 4 5 6 7 8 9 10 11 12 13 14 15 16 17 18 19 20 21 22 23
000
FTUS42 KGSP 310011 AAA
TAFAVL
TAF AMD
KAVL 310011Z 3100/3124 14005KT P6SM VCSH BKN007 OVC015
     FM310300 15009KT 3SM BR OVC007
      TEMPO 3103/3107 1SM SHRA BR OVC003
     FM310700 17009KT 1SM SHRA BR OVC008 PROB30 3109/3113 3SM TSRA
      BR OVC003CB
     FM311300 23008KT P6SM VCSH BKN030
     FM311500 24009KT P6SM VCSH BKN060
     FM312000 28011KT P6SM SCT060=

USA.gov is the U.S. government's official web portal to all federal, state and local government web resources and services.